Aérodrome :
LOGIN :

S'inscrire | Disclaimer

   EN    FR    IT 

 










Légende :    VFR   VFR Marginal   IFR   IFR Intensif   IFR Très Intensif
Visi : 
Plafond : 
>= 8 km
>= 3000ft
5 à 8 km
1000 à 3000 ft
1500m à 5 km
500 à 1000 ft
800 à 1500m
200 à 500 ft
< 800m
< 200 ft
Symboles :   Orages  Brouillard  Fortes neiges  Fortes précipitations  Vent > 20 kt
SIGMETs :   Divers  Orages  Givrage  Turbulence  Onde Orograph.  Cendres Volcan.






- Altitude de l'aérodrome : 238 ft
- Code IATA : FAB


EGLF - Farnborough

DERNIER METAR :
  • 281250Z AUTO 08008KT 030V150 9999 NCD 21/05 Q1032

METARs EXPIRÉS :
  • 281220Z AUTO 07008KT 360V140 9999 NCD 21/06 Q1033
  • 281150Z AUTO 08009KT 010V120 9999 NCD 21/06 Q1033
  • 281120Z 07008KT 360V160 CAVOK 20/07 Q1033
  • 281050Z AUTO 06009KT 010V120 9999 NCD 19/08 Q1034

TAF TAF EGLF
Valide du 28 à 09h jusqu'au 28 à 18h UTC


280758Z 2809/2818 08009KT CAVOK
ATIS : +44 09063 800 400 (*282)



MET'MAP, la Météo Aéronautique d'un coup d'oeil ! - Copyright ORBIFLY Décembre 2007 - Disclaimer

ORBIFLY MET'MAP TEAM :

Programmation & Développement : Alexandra Zaïnal
Sur une idée originale de : Baudouin d'Aumeries
Assistance à la programmation : Marc-Olivier Méhu
Soutien technique & logistique : Manuel Goepfert

Contact : metmap@orbifly.com




SOURCES & CREDITS :

   NOAA